Time;durP1;ratioP1;P1;durP2;ratioP2;P2;SDS_P1;SDS_P2;PMS_P1;PMS_P2;Temp;Humidity;BMP_temperature;BMP_pressure;BME280_temperature;BME280_humidity;BME280_pressure;Samples;Min_cycle;Max_cycle;Signal;HPM_P1;HPM_P2
2022/01/12 00:02:03;;;;;;;27.30;16.13;;;-1.80;99.90;;;;;;5030237;28;20199;-70
2022/01/12 00:04:28;;;;;;;22.50;16.23;;;-1.80;99.90;;;;;;5031516;28;20208;-70
2022/01/12 00:06:54;;;;;;;25.10;16.67;;;-1.70;99.90;;;;;;5033597;28;20207;-70
2022/01/12 00:09:20;;;;;;;18.83;14.60;;;-1.70;99.90;;;;;;5029614;28;20176;-71
2022/01/12 00:11:45;;;;;;;25.17;16.60;;;-1.60;99.90;;;;;;5028156;28;20181;-70
2022/01/12 00:14:11;;;;;;;23.43;15.10;;;-1.60;99.90;;;;;;5031610;28;20633;-71
2022/01/12 00:16:38;;;;;;;19.23;14.37;;;-1.60;99.90;;;;;;5033367;28;20545;-70
2022/01/12 00:19:04;;;;;;;19.00;14.57;;;-1.60;99.90;;;;;;5030187;28;20191;-70
2022/01/12 00:21:30;;;;;;;24.77;14.90;;;-1.60;99.90;;;;;;5027732;28;20185;-70
2022/01/12 00:23:55;;;;;;;21.57;15.10;;;-1.60;99.90;;;;;;5034022;28;20273;-70
2022/01/12 00:33:06;;;;;;;21.10;15.57;;;-1.60;99.90;;;;;;5031933;28;20169;-70
2022/01/12 00:34:51;;;;;;;21.67;14.60;;;-1.60;99.90;;;;;;5029695;28;20226;-70
2022/01/12 00:37:17;;;;;;;21.37;14.33;;;-1.60;99.90;;;;;;5030676;28;20551;-70
2022/01/12 00:39:42;;;;;;;21.50;15.17;;;-1.60;99.90;;;;;;5027980;28;20229;-70
2022/01/12 00:42:11;;;;;;;21.47;14.83;;;-1.60;99.90;;;;;;5031529;28;20208;-70
2022/01/12 00:44:37;;;;;;;21.53;15.70;;;-1.60;99.90;;;;;;5031872;28;20169;-70
2022/01/12 00:47:02;;;;;;;22.53;14.63;;;-1.60;99.90;;;;;;5028457;28;20642;-70
2022/01/12 00:49:28;;;;;;;22.83;15.20;;;-1.50;99.90;;;;;;5035720;28;20223;-70
2022/01/12 00:51:54;;;;;;;21.90;14.80;;;-1.50;99.90;;;;;;5036537;28;20183;-70
2022/01/12 00:54:22;;;;;;;22.23;15.40;;;-1.50;99.90;;;;;;5035106;28;20173;-70
2022/01/12 00:56:48;;;;;;;21.13;13.70;;;-1.50;99.90;;;;;;5034763;28;20184;-70
2022/01/12 00:59:13;;;;;;;19.33;15.07;;;-1.50;99.90;;;;;;5037619;28;20709;-70
2022/01/12 01:01:39;;;;;;;20.60;14.90;;;-1.40;99.90;;;;;;5029502;28;20725;-70
2022/01/12 01:04:05;;;;;;;18.07;13.37;;;-1.40;99.90;;;;;;5035771;28;20214;-70
2022/01/12 01:06:32;;;;;;;20.87;14.33;;;-1.40;99.90;;;;;;5035474;28;20655;-70
2022/01/12 01:08:58;;;;;;;17.37;13.40;;;-1.40;99.90;;;;;;5031266;28;20181;-70
2022/01/12 01:11:24;;;;;;;19.03;13.73;;;-1.40;99.90;;;;;;5034296;28;20279;-70
2022/01/12 01:14:02;;;;;;;19.37;13.83;;;-1.50;99.90;;;;;;5033565;28;20220;-70
2022/01/12 01:27:20;;;;;;;19.77;13.93;;;-1.60;99.90;;;;;;5027814;28;20215;-70
2022/01/12 01:29:47;;;;;;;18.87;13.90;;;-1.70;99.90;;;;;;5037444;28;20255;-70
2022/01/12 01:32:13;;;;;;;21.63;15.17;;;-1.70;99.90;;;;;;5027194;28;20212;-70
2022/01/12 01:34:44;;;;;;;22.07;14.97;;;-1.90;99.90;;;;;;5030828;28;20195;-70
2022/01/12 01:37:10;;;;;;;22.53;15.07;;;-1.90;99.90;;;;;;5035184;28;20679;-70
2022/01/12 01:39:36;;;;;;;19.80;13.77;;;-2.10;99.90;;;;;;5035113;28;20184;-70
2022/01/12 01:42:07;;;;;;;23.47;16.50;;;-2.10;99.90;;;;;;5033444;28;20212;-70
2022/01/12 01:55:19;;;;;;;23.03;15.87;;;-2.30;99.90;;;;;;5036532;28;20202;-70
2022/01/12 01:57:45;;;;;;;19.40;14.27;;;-2.20;99.90;;;;;;5031632;28;20639;-70
2022/01/12 02:00:19;;;;;;;21.13;14.57;;;-2.20;99.90;;;;;;5031419;28;20668;-71
2022/01/12 02:02:46;;;;;;;24.20;15.10;;;-2.10;99.90;;;;;;5035913;28;20222;-70
2022/01/12 02:05:12;;;;;;;21.87;15.27;;;-2.00;99.90;;;;;;5032288;28;20246;-71
2022/01/12 02:07:38;;;;;;;19.63;13.67;;;-1.80;99.90;;;;;;5032785;28;20188;-70
2022/01/12 02:10:05;;;;;;;25.13;15.23;;;-1.80;99.90;;;;;;5031389;28;20234;-70
2022/01/12 02:12:31;;;;;;;20.97;15.27;;;-1.70;99.90;;;;;;5033855;28;20200;-70
2022/01/12 02:15:00;;;;;;;22.07;14.63;;;-1.60;99.90;;;;;;5028136;28;20192;-71
2022/01/12 02:17:31;;;;;;;22.07;14.03;;;-1.60;99.90;;;;;;5034414;28;20188;-70
2022/01/12 02:20:29;;;;;;;18.00;13.23;;;-1.50;99.90;;;;;;5034035;28;20184;-71
2022/01/12 02:36:57;;;;;;;18.47;13.97;;;-1.20;99.90;;;;;;5032436;28;20200;-71
2022/01/12 02:42:29;;;;;;;19.40;12.70;;;-1.10;99.90;;;;;;5070374;28;20294;-70
2022/01/12 02:50:53;;;;;;;20.77;13.90;;;-1.10;99.90;;;;;;5023793;28;20251;-70
2022/01/12 02:56:03;;;;;;;19.30;14.03;;;-1.10;99.90;;;;;;5033658;28;20257;-70
2022/01/12 02:58:30;;;;;;;17.33;12.83;;;-1.10;99.90;;;;;;5027381;28;20193;-70
2022/01/12 03:03:24;;;;;;;16.83;13.20;;;-1.00;99.90;;;;;;5034049;28;20216;-70
2022/01/12 03:06:02;;;;;;;19.73;14.60;;;-1.10;99.90;;;;;;5034264;28;20208;-70
2022/01/12 03:08:29;;;;;;;19.23;13.87;;;-1.00;99.90;;;;;;5026190;28;20184;-70
2022/01/12 03:10:55;;;;;;;17.27;14.00;;;-1.00;99.90;;;;;;5025703;28;20482;-71
2022/01/12 03:13:21;;;;;;;21.27;13.40;;;-0.90;99.90;;;;;;5031893;28;20205;-71
2022/01/12 03:15:48;;;;;;;20.37;13.53;;;-1.00;99.90;;;;;;5030813;28;20193;-70
2022/01/12 03:18:15;;;;;;;19.67;14.67;;;-1.00;99.90;;;;;;5034495;28;20666;-71
2022/01/12 03:20:41;;;;;;;16.83;12.47;;;-0.90;99.90;;;;;;5032952;28;20177;-70
2022/01/12 03:23:07;;;;;;;15.73;12.23;;;-0.80;99.90;;;;;;5033001;28;20204;-71
2022/01/12 03:25:33;;;;;;;16.97;12.20;;;-0.80;99.90;;;;;;5031944;28;20569;-71
2022/01/12 03:28:01;;;;;;;17.07;12.27;;;-0.80;99.90;;;;;;5035424;28;20647;-71
2022/01/12 03:30:34;;;;;;;17.17;13.43;;;-0.80;99.90;;;;;;5028061;28;20536;-71
2022/01/12 03:33:29;;;;;;;17.13;12.97;;;-0.90;99.90;;;;;;5033748;28;20699;-71
2022/01/12 03:36:22;;;;;;;17.30;12.27;;;-0.80;99.90;;;;;;5034423;28;20188;-70
2022/01/12 03:38:40;;;;;;;16.07;12.20;;;-0.80;99.90;;;;;;5031838;28;20196;-70
2022/01/12 03:41:06;;;;;;;15.50;11.97;;;-0.70;99.90;;;;;;5034724;28;20192;-71
2022/01/12 03:43:31;;;;;;;16.43;13.17;;;-0.70;99.90;;;;;;5030131;28;20318;-70
2022/01/12 03:45:58;;;;;;;19.47;12.70;;;-0.80;99.90;;;;;;5032209;28;20188;-70
2022/01/12 03:48:23;;;;;;;18.67;12.40;;;-0.70;99.90;;;;;;5032429;28;20176;-70
2022/01/12 03:50:49;;;;;;;16.07;12.60;;;-0.80;99.90;;;;;;5035997;28;20191;-70
2022/01/12 03:53:16;;;;;;;15.23;11.37;;;-0.80;99.90;;;;;;5031965;28;20211;-70
2022/01/12 03:55:43;;;;;;;16.23;12.67;;;-0.90;99.90;;;;;;5036543;28;20180;-70
2022/01/12 03:58:11;;;;;;;16.60;12.67;;;-1.00;99.90;;;;;;5028277;28;20205;-70
2022/01/12 04:00:37;;;;;;;17.47;12.57;;;-1.10;99.90;;;;;;5021691;28;20203;-71
2022/01/12 04:03:05;;;;;;;15.87;12.50;;;-1.00;99.90;;;;;;5033485;28;20208;-70
2022/01/12 04:08:19;;;;;;;16.43;13.07;;;-1.00;99.90;;;;;;5030828;28;20179;-70
2022/01/12 04:10:49;;;;;;;15.43;12.60;;;-0.90;99.90;;;;;;5033222;28;20230;-70
2022/01/12 04:13:15;;;;;;;17.07;11.93;;;-1.00;99.90;;;;;;5031822;28;20617;-70
2022/01/12 04:15:47;;;;;;;15.87;12.13;;;-1.00;99.90;;;;;;5030718;28;20187;-71
2022/01/12 04:18:14;;;;;;;15.83;13.07;;;-1.00;99.90;;;;;;5027938;28;20196;-70
2022/01/12 04:20:47;;;;;;;14.03;11.53;;;-1.00;99.90;;;;;;5035561;28;20644;-70
2022/01/12 04:23:18;;;;;;;19.60;13.60;;;-1.00;99.90;;;;;;5032989;28;20247;-70
2022/01/12 04:25:52;;;;;;;15.40;12.23;;;-0.90;99.90;;;;;;5025625;28;20197;-70
2022/01/12 04:28:20;;;;;;;18.00;12.60;;;-1.00;99.90;;;;;;5029561;28;20612;-70
2022/01/12 04:30:47;;;;;;;16.60;12.57;;;-1.00;99.90;;;;;;5028470;28;20180;-70
2022/01/12 04:33:13;;;;;;;20.47;13.23;;;-1.10;99.90;;;;;;5031397;28;20585;-70
2022/01/12 04:35:48;;;;;;;15.83;12.70;;;-1.10;99.90;;;;;;5027955;28;20191;-71
2022/01/12 04:38:15;;;;;;;17.17;12.80;;;-1.20;99.90;;;;;;5032463;28;20195;-70
2022/01/12 04:40:41;;;;;;;14.40;11.67;;;-1.30;99.90;;;;;;5029252;28;20192;-70
2022/01/12 04:43:08;;;;;;;17.47;12.30;;;-1.20;99.90;;;;;;5030608;28;20280;-70
2022/01/12 04:48:08;;;;;;;16.70;13.23;;;-1.20;99.90;;;;;;5034169;28;20195;-70
2022/01/12 04:50:37;;;;;;;16.37;12.63;;;-1.20;99.90;;;;;;5028404;28;20179;-71
2022/01/12 04:53:04;;;;;;;15.90;12.03;;;-1.20;99.90;;;;;;5023202;28;20223;-70
2022/01/12 04:55:30;;;;;;;17.40;13.30;;;-1.20;99.90;;;;;;5025700;28;20821;-70
2022/01/12 04:57:55;;;;;;;16.73;12.37;;;-1.20;99.90;;;;;;5026736;28;20224;-70
2022/01/12 05:00:22;;;;;;;15.10;11.67;;;-1.20;99.90;;;;;;5026074;28;20227;-70
2022/01/12 05:13:42;;;;;;;14.47;11.87;;;-1.00;99.90;;;;;;5025719;28;20247;-70
2022/01/12 05:16:10;;;;;;;17.43;13.57;;;-1.00;99.90;;;;;;5025908;28;20192;-70
2022/01/12 05:18:37;;;;;;;15.47;12.40;;;-1.10;99.90;;;;;;5027878;28;20644;-71
2022/01/12 05:21:04;;;;;;;19.80;13.67;;;-1.20;99.90;;;;;;5020934;28;20666;-71
2022/01/12 05:23:29;;;;;;;18.00;12.90;;;-1.30;99.90;;;;;;5022858;28;20202;-71
2022/01/12 05:25:55;;;;;;;20.80;14.87;;;-1.30;99.90;;;;;;5028978;28;20188;-71
2022/01/12 05:28:22;;;;;;;18.30;13.53;;;-1.30;99.90;;;;;;5026713;28;20215;-71
2022/01/12 05:30:48;;;;;;;16.97;12.60;;;-1.40;99.90;;;;;;5028118;28;20560;-71
2022/01/12 05:33:14;;;;;;;20.67;13.63;;;-1.40;99.90;;;;;;5033325;28;20200;-71
2022/01/12 05:35:42;;;;;;;17.00;13.43;;;-1.50;99.90;;;;;;5023150;28;20188;-70
2022/01/12 05:38:09;;;;;;;17.93;13.30;;;-1.50;99.90;;;;;;5030949;28;20192;-70
2022/01/12 05:40:34;;;;;;;19.03;14.87;;;-1.50;99.90;;;;;;5025547;28;20184;-70
2022/01/12 05:43:01;;;;;;;21.27;14.43;;;-1.60;99.90;;;;;;5020485;28;20217;-71
2022/01/12 05:45:32;;;;;;;19.33;13.63;;;-1.70;99.90;;;;;;5025492;28;20254;-71
2022/01/12 05:50:26;;;;;;;21.97;14.37;;;-1.80;99.90;;;;;;5021105;28;20170;-71
2022/01/12 05:52:52;;;;;;;18.80;13.50;;;-1.80;99.90;;;;;;5019637;28;20205;-71
2022/01/12 05:55:18;;;;;;;19.47;13.83;;;-1.80;99.90;;;;;;5018721;28;20602;-71
2022/01/12 05:57:43;;;;;;;20.80;15.07;;;-1.90;99.90;;;;;;5021234;28;20193;-71
2022/01/12 06:00:12;;;;;;;17.97;12.37;;;-1.90;99.90;;;;;;5022537;28;20192;-70
2022/01/12 06:02:38;;;;;;;20.83;13.03;;;-1.90;99.90;;;;;;5026573;28;20213;-71
2022/01/12 06:05:04;;;;;;;19.57;13.80;;;-1.80;99.90;;;;;;5033602;28;20975;-71
2022/01/12 06:07:31;;;;;;;17.70;12.47;;;-1.80;99.90;;;;;;5032935;28;20179;-71
2022/01/12 06:09:56;;;;;;;18.63;14.40;;;-1.90;99.90;;;;;;5034169;28;20188;-71
2022/01/12 06:12:22;;;;;;;20.40;14.17;;;-1.90;99.90;;;;;;5030829;28;20197;-71
2022/01/12 06:14:48;;;;;;;17.97;13.37;;;-1.90;99.90;;;;;;5030882;28;20192;-71
2022/01/12 06:17:13;;;;;;;19.63;14.17;;;-1.90;99.90;;;;;;5029797;28;20185;-71
2022/01/12 06:19:40;;;;;;;15.07;12.03;;;-1.80;99.90;;;;;;5030294;28;20659;-71
2022/01/12 06:22:06;;;;;;;19.33;13.63;;;-1.80;99.90;;;;;;5033919;28;20208;-70
2022/01/12 06:24:32;;;;;;;18.23;15.07;;;-1.90;99.90;;;;;;5028498;28;20215;-71
2022/01/12 06:26:59;;;;;;;21.07;14.30;;;-1.90;99.90;;;;;;5025058;28;20185;-70
2022/01/12 06:29:38;;;;;;;20.00;14.07;;;-1.90;99.90;;;;;;5033081;28;20168;-72
2022/01/12 06:32:05;;;;;;;19.17;13.17;;;-1.80;99.90;;;;;;5022534;28;20200;-73
2022/01/12 06:34:30;;;;;;;20.37;14.17;;;-1.80;99.90;;;;;;5021145;28;20166;-74
2022/01/12 06:36:56;;;;;;;23.00;15.23;;;-1.90;99.90;;;;;;5020965;28;20562;-73
2022/01/12 06:39:23;;;;;;;19.77;14.80;;;-1.90;99.90;;;;;;5019226;28;20177;-74
2022/01/12 06:41:51;;;;;;;21.40;14.20;;;-1.90;99.90;;;;;;5021405;28;20180;-74
2022/01/12 06:44:17;;;;;;;22.83;15.17;;;-2.00;99.90;;;;;;5021486;28;20209;-72
2022/01/12 06:46:44;;;;;;;17.93;12.80;;;-2.00;99.90;;;;;;5021730;28;20192;-72
2022/01/12 06:49:11;;;;;;;19.73;13.97;;;-1.90;99.90;;;;;;5031292;28;20327;-72
2022/01/12 06:51:38;;;;;;;20.43;14.37;;;-1.90;99.90;;;;;;5029814;28;20466;-71
2022/01/12 06:54:04;;;;;;;27.40;15.70;;;-2.00;99.90;;;;;;5024742;28;20181;-73
2022/01/12 06:56:29;;;;;;;19.03;15.03;;;-1.90;99.90;;;;;;5028269;28;20185;-74
2022/01/12 06:58:55;;;;;;;18.10;13.30;;;-1.90;99.90;;;;;;5024678;28;20192;-71
2022/01/12 07:01:21;;;;;;;23.63;15.13;;;-1.80;99.90;;;;;;5028159;28;20195;-71
2022/01/12 07:03:50;;;;;;;20.50;14.97;;;-1.80;99.90;;;;;;5026736;28;20209;-71
2022/01/12 07:06:18;;;;;;;19.63;15.07;;;-1.80;99.90;;;;;;5039750;28;20180;-71
2022/01/12 07:08:45;;;;;;;20.93;15.97;;;-1.80;99.90;;;;;;5037825;28;20192;-71
2022/01/12 07:11:13;;;;;;;17.63;12.60;;;-1.80;99.90;;;;;;5031922;28;20190;-71
2022/01/12 07:13:38;;;;;;;20.10;14.03;;;-1.90;99.90;;;;;;5028649;28;20207;-74
2022/01/12 07:16:04;;;;;;;19.03;14.03;;;-1.80;99.90;;;;;;5032493;28;20192;-73
2022/01/12 07:18:31;;;;;;;21.00;14.33;;;-1.80;99.90;;;;;;5031917;28;20204;-71
2022/01/12 07:20:57;;;;;;;22.47;15.43;;;-1.70;99.90;;;;;;5027264;28;20180;-71
2022/01/12 07:23:24;;;;;;;22.20;14.30;;;-1.70;99.90;;;;;;5017637;28;20208;-73
2022/01/12 07:25:50;;;;;;;18.70;13.60;;;-1.70;99.90;;;;;;5019769;28;20180;-72
2022/01/12 07:28:16;;;;;;;19.30;12.77;;;-1.60;99.90;;;;;;5036990;28;20415;-72
2022/01/12 07:30:41;;;;;;;20.97;14.27;;;-1.60;99.90;;;;;;5030198;28;20256;-72
2022/01/12 07:33:07;;;;;;;19.13;13.73;;;-1.60;99.90;;;;;;5020197;28;20250;-72
2022/01/12 07:35:33;;;;;;;17.97;13.47;;;-1.60;99.90;;;;;;5023759;28;20260;-72
2022/01/12 07:37:58;;;;;;;19.37;13.83;;;-1.70;99.90;;;;;;5028721;28;20196;-72
2022/01/12 07:40:24;;;;;;;17.10;12.87;;;-1.60;99.90;;;;;;5028695;28;20180;-72
2022/01/12 07:42:51;;;;;;;18.40;13.17;;;-1.60;99.90;;;;;;5018210;28;20204;-72
2022/01/12 07:45:17;;;;;;;16.47;13.00;;;-1.50;99.90;;;;;;5024653;28;20172;-72
2022/01/12 07:47:43;;;;;;;17.53;13.00;;;-1.50;99.90;;;;;;5020955;28;20195;-72
2022/01/12 07:50:10;;;;;;;19.63;13.43;;;-1.40;99.90;;;;;;5027129;28;20185;-72
2022/01/12 07:52:36;;;;;;;16.83;12.93;;;-1.30;99.90;;;;;;5027124;28;20212;-72
2022/01/12 07:55:03;;;;;;;14.87;12.23;;;-1.20;99.90;;;;;;5024320;28;20194;-72
2022/01/12 07:57:29;;;;;;;17.53;12.90;;;-1.20;99.90;;;;;;5023857;28;20181;-71
2022/01/12 07:59:55;;;;;;;18.67;12.07;;;-1.30;99.90;;;;;;5021449;28;20296;-72
2022/01/12 08:02:21;;;;;;;19.03;11.63;;;-1.30;99.90;;;;;;5022033;28;20205;-71
2022/01/12 08:04:46;;;;;;;16.47;13.20;;;-1.20;99.90;;;;;;5018588;28;20177;-71
2022/01/12 08:07:12;;;;;;;16.83;12.77;;;-1.30;99.90;;;;;;5016789;28;20788;-72
2022/01/12 08:09:39;;;;;;;13.10;9.83;;;-1.20;99.90;;;;;;5012577;28;20623;-72
2022/01/12 08:12:06;;;;;;;14.90;11.63;;;-1.10;99.90;;;;;;5015912;28;20567;-72
2022/01/12 08:14:32;;;;;;;13.73;9.80;;;-1.00;99.90;;;;;;5014763;28;20209;-72
2022/01/12 08:16:58;;;;;;;14.07;11.43;;;-1.10;99.90;;;;;;5021456;28;20212;-71
2022/01/12 08:19:25;;;;;;;13.60;11.43;;;-1.10;99.90;;;;;;5026858;28;20180;-72
2022/01/12 08:21:50;;;;;;;15.27;12.67;;;-1.10;99.90;;;;;;5027750;28;20678;-74
2022/01/12 08:24:16;;;;;;;15.27;11.50;;;-1.20;99.90;;;;;;5020969;28;20204;-72
2022/01/12 08:26:43;;;;;;;15.17;12.20;;;-1.10;99.90;;;;;;5016114;28;20188;-73
2022/01/12 08:29:11;;;;;;;13.77;10.97;;;-1.10;99.90;;;;;;5017049;28;20188;-72
2022/01/12 08:31:36;;;;;;;16.93;13.33;;;-1.10;99.90;;;;;;5016731;28;20293;-72
2022/01/12 08:34:03;;;;;;;16.00;11.87;;;-1.10;99.90;;;;;;5018229;28;20211;-72
2022/01/12 08:36:28;;;;;;;14.83;11.87;;;-1.10;99.90;;;;;;5018478;28;20184;-72
2022/01/12 08:38:55;;;;;;;17.83;12.27;;;-1.20;99.90;;;;;;5035461;28;20188;-72
2022/01/12 08:41:21;;;;;;;15.27;12.13;;;-1.20;99.90;;;;;;5019461;28;20177;-73
2022/01/12 08:43:47;;;;;;;15.60;12.90;;;-1.20;99.90;;;;;;5020654;28;20234;-73
2022/01/12 08:46:13;;;;;;;17.70;12.80;;;-1.40;99.90;;;;;;5025682;28;20185;-72
2022/01/12 08:48:38;;;;;;;16.47;13.80;;;-1.40;99.90;;;;;;5024018;28;20180;-71
2022/01/12 08:51:04;;;;;;;15.47;11.90;;;-1.40;99.90;;;;;;5031014;28;20212;-71
2022/01/12 08:53:30;;;;;;;19.40;12.73;;;-1.40;99.90;;;;;;5015619;28;20205;-72
2022/01/12 08:55:55;;;;;;;15.60;12.63;;;-1.40;99.90;;;;;;5020816;28;20185;-72
2022/01/12 08:58:21;;;;;;;15.60;12.53;;;-1.50;99.90;;;;;;5017523;28;20236;-72
2022/01/12 09:00:47;;;;;;;19.23;12.77;;;-1.40;99.90;;;;;;5018777;28;20204;-72
2022/01/12 09:03:13;;;;;;;17.03;12.57;;;-1.40;99.90;;;;;;5021358;28;20258;-72
2022/01/12 09:05:40;;;;;;;12.47;10.90;;;-1.20;99.90;;;;;;5022164;28;20249;-70
2022/01/12 09:08:06;;;;;;;14.40;11.33;;;-1.10;99.90;;;;;;5029449;28;20183;-71
2022/01/12 09:10:33;;;;;;;13.10;10.60;;;-0.90;99.90;;;;;;5027593;28;20181;-71
2022/01/12 09:12:59;;;;;;;13.50;11.10;;;-0.70;99.90;;;;;;5030134;28;20635;-71
2022/01/12 09:15:25;;;;;;;14.03;10.97;;;-0.60;99.90;;;;;;5023764;28;20184;-71
2022/01/12 09:17:53;;;;;;;16.77;11.73;;;-0.60;99.90;;;;;;5021096;28;20174;-72
2022/01/12 09:20:19;;;;;;;13.90;11.27;;;-0.50;99.90;;;;;;5020906;28;20575;-71
2022/01/12 09:22:46;;;;;;;16.20;11.90;;;-0.50;99.90;;;;;;5026147;28;20208;-72
2022/01/12 09:25:12;;;;;;;13.57;11.07;;;-0.40;99.90;;;;;;5031309;28;20214;-73
2022/01/12 09:27:38;;;;;;;16.27;12.53;;;-0.40;99.90;;;;;;5029453;28;20184;-71
2022/01/12 09:30:07;;;;;;;16.10;11.70;;;-0.50;99.90;;;;;;5033879;28;20189;-71
2022/01/12 09:32:32;;;;;;;14.97;11.97;;;-0.50;99.90;;;;;;5027996;28;20568;-71
2022/01/12 09:34:58;;;;;;;15.23;11.90;;;-0.50;99.90;;;;;;5032159;28;20184;-72
2022/01/12 09:37:23;;;;;;;13.60;11.17;;;-0.50;99.90;;;;;;5026195;28;20655;-73
2022/01/12 09:39:49;;;;;;;17.20;11.93;;;-0.40;99.90;;;;;;5029581;28;20215;-71
2022/01/12 09:42:16;;;;;;;13.37;11.80;;;-0.40;99.90;;;;;;5020168;28;20214;-72
2022/01/12 09:44:46;;;;;;;15.47;11.40;;;-0.30;99.90;;;;;;5018609;28;20272;-72
2022/01/12 09:47:12;;;;;;;17.73;12.03;;;-0.20;99.90;;;;;;5023773;28;20624;-71
2022/01/12 09:49:38;;;;;;;16.43;11.73;;;0.00;99.90;;;;;;5021459;28;20188;-71
2022/01/12 09:52:03;;;;;;;19.93;13.70;;;0.10;99.90;;;;;;5020481;28;20210;-72
2022/01/12 09:54:29;;;;;;;15.60;11.80;;;0.10;99.90;;;;;;5025559;28;20184;-73
2022/01/12 09:56:57;;;;;;;16.50;10.87;;;0.20;99.90;;;;;;5024279;28;20200;-73
2022/01/12 09:59:23;;;;;;;16.90;13.33;;;0.20;99.90;;;;;;5020462;28;20193;-73
2022/01/12 10:01:49;;;;;;;15.53;11.57;;;-0.10;99.90;;;;;;5020010;28;20283;-73
2022/01/12 10:04:18;;;;;;;14.67;11.07;;;-0.20;99.90;;;;;;5028976;28;20199;-73
2022/01/12 10:06:50;;;;;;;14.07;11.03;;;-0.30;99.90;;;;;;5036373;28;20658;-72
2022/01/12 10:09:17;;;;;;;13.43;11.50;;;-0.40;99.90;;;;;;5025449;28;20188;-72
2022/01/12 10:11:49;;;;;;;14.47;12.23;;;-0.40;99.90;;;;;;5023508;28;20239;-72
2022/01/12 10:14:14;;;;;;;19.33;12.87;;;-0.40;99.90;;;;;;5020535;28;20189;-72
2022/01/12 10:16:50;;;;;;;20.17;14.60;;;-0.40;99.90;;;;;;5018071;28;20707;-72
2022/01/12 10:19:25;;;;;;;16.90;10.57;;;-0.30;99.90;;;;;;5023542;28;20191;-72
2022/01/12 10:21:51;;;;;;;15.53;12.30;;;-0.10;99.90;;;;;;5020756;28;20213;-72
2022/01/12 10:24:19;;;;;;;16.10;12.20;;;-0.10;99.90;;;;;;5016707;28;20251;-72
2022/01/12 10:26:46;;;;;;;15.53;11.63;;;-0.10;99.90;;;;;;5018813;28;20184;-72
2022/01/12 10:29:20;;;;;;;17.00;12.03;;;0.00;99.90;;;;;;5026920;28;20622;-72
2022/01/12 10:31:50;;;;;;;16.13;11.83;;;-0.10;99.90;;;;;;5020835;28;20185;-72
2022/01/12 10:34:18;;;;;;;17.47;11.37;;;0.00;99.90;;;;;;5018725;28;20238;-72
2022/01/12 10:36:45;;;;;;;18.00;12.30;;;0.10;99.90;;;;;;5018164;28;20209;-72
2022/01/12 10:39:14;;;;;;;18.10;12.13;;;0.30;99.90;;;;;;5023787;28;20536;-72
2022/01/12 10:42:02;;;;;;;15.37;10.53;;;0.20;99.90;;;;;;5027159;28;20544;-72
2022/01/12 10:44:34;;;;;;;16.50;10.83;;;0.40;99.90;;;;;;5026385;28;20204;-73
2022/01/12 10:47:12;;;;;;;13.43;10.97;;;0.50;99.90;;;;;;5031798;28;20176;-73
2022/01/12 10:49:41;;;;;;;13.43;10.93;;;0.60;99.90;;;;;;5028923;28;20188;-73
2022/01/12 10:52:12;;;;;;;14.40;11.93;;;0.50;99.90;;;;;;5030698;28;20211;-73
2022/01/12 10:54:48;;;;;;;20.87;12.67;;;0.30;99.90;;;;;;5030204;28;20193;-73
2022/01/12 10:57:19;;;;;;;15.53;11.77;;;0.20;99.90;;;;;;5033213;28;20199;-75
2022/01/12 11:00:18;;;;;;;18.70;13.40;;;0.20;99.90;;;;;;5031541;28;20596;-75
2022/01/12 11:02:48;;;;;;;15.63;12.40;;;0.40;99.90;;;;;;5031952;28;20244;-75
2022/01/12 11:05:15;;;;;;;18.67;12.17;;;0.50;99.90;;;;;;5023856;28;20172;-74
2022/01/12 11:07:40;;;;;;;15.03;11.80;;;0.70;99.90;;;;;;5028177;28;20242;-73
2022/01/12 11:10:08;;;;;;;14.57;11.30;;;0.80;99.90;;;;;;5028223;28;20184;-75
2022/01/12 11:12:38;;;;;;;16.63;12.03;;;1.00;99.90;;;;;;5019988;28;20264;-73
2022/01/12 11:15:12;;;;;;;16.07;11.33;;;1.30;99.90;;;;;;5020700;28;20189;-73
2022/01/12 11:17:39;;;;;;;15.10;11.63;;;1.30;99.90;;;;;;5024493;28;20180;-73
2022/01/12 11:20:30;;;;;;;16.67;11.30;;;1.50;99.90;;;;;;5025282;28;20603;-72
2022/01/12 11:23:11;;;;;;;17.87;12.80;;;1.30;99.90;;;;;;5015969;28;20220;-72
2022/01/12 11:25:41;;;;;;;16.33;12.40;;;1.00;99.90;;;;;;5025367;28;20177;-75
2022/01/12 11:28:37;;;;;;;16.57;13.43;;;0.60;99.90;;;;;;5019903;28;20590;-73
2022/01/12 11:31:04;;;;;;;15.53;11.87;;;0.30;99.90;;;;;;5029024;28;20547;-73
2022/01/12 11:33:33;;;;;;;17.47;12.37;;;0.50;99.90;;;;;;5026679;28;20237;-72
2022/01/12 11:36:03;;;;;;;16.30;12.60;;;0.60;99.90;;;;;;5028106;28;20192;-73
2022/01/12 11:38:31;;;;;;;14.87;11.30;;;0.50;99.90;;;;;;5019442;28;20671;-74
2022/01/12 11:41:12;;;;;;;16.67;12.07;;;0.50;99.90;;;;;;5025442;28;20185;-75
2022/01/12 11:43:51;;;;;;;16.47;11.30;;;0.60;99.90;;;;;;5029471;28;20212;-74
2022/01/12 11:46:25;;;;;;;13.10;9.37;;;0.50;99.90;;;;;;5017791;28;20295;-73
2022/01/12 11:48:52;;;;;;;15.50;11.13;;;0.40;99.90;;;;;;5026775;28;20663;-73
2022/01/12 11:51:31;;;;;;;14.07;10.27;;;0.20;99.90;;;;;;5030646;28;20611;-74
2022/01/12 11:54:20;;;;;;;12.80;10.37;;;0.30;99.90;;;;;;5018142;28;20566;-73
2022/01/12 11:56:53;;;;;;;14.63;10.33;;;0.50;99.90;;;;;;5025044;28;20287;-73
2022/01/12 11:59:20;;;;;;;13.73;10.17;;;0.50;99.90;;;;;;5024404;28;20291;-74
2022/01/12 12:01:48;;;;;;;13.20;9.97;;;0.40;99.90;;;;;;5024979;28;20193;-72
2022/01/12 12:04:52;;;;;;;14.20;10.17;;;0.40;99.90;;;;;;5015076;28;20680;-72
2022/01/12 12:07:17;;;;;;;11.70;9.60;;;0.70;99.90;;;;;;5015086;28;20177;-72
2022/01/12 12:09:53;;;;;;;12.90;9.07;;;0.80;99.90;;;;;;5016453;28;20208;-72
2022/01/12 12:12:23;;;;;;;11.57;9.67;;;0.80;99.90;;;;;;5018659;28;20208;-72
2022/01/12 12:14:55;;;;;;;11.90;9.30;;;1.00;99.90;;;;;;5019969;28;20219;-72
2022/01/12 12:17:22;;;;;;;10.40;8.53;;;1.30;99.90;;;;;;5016684;28;20185;-74
2022/01/12 12:19:49;;;;;;;10.73;8.60;;;1.80;99.90;;;;;;5018372;28;20339;-73
2022/01/12 12:22:18;;;;;;;12.53;9.87;;;1.90;99.90;;;;;;5020775;28;20214;-73
2022/01/12 12:24:47;;;;;;;10.43;8.30;;;1.60;99.90;;;;;;5017749;28;20320;-73
2022/01/12 12:27:18;;;;;;;11.97;8.50;;;1.70;99.90;;;;;;5017015;28;20188;-73
2022/01/12 12:29:45;;;;;;;9.43;8.37;;;2.00;99.90;;;;;;5016178;28;20654;-71
2022/01/12 12:32:13;;;;;;;8.70;7.83;;;2.70;99.90;;;;;;5016824;28;20266;-71
2022/01/12 12:34:40;;;;;;;10.60;8.17;;;4.20;99.90;;;;;;5016256;28;20189;-73
2022/01/12 12:37:08;;;;;;;11.10;8.97;;;5.10;99.90;;;;;;5016053;28;20200;-73
2022/01/12 12:39:36;;;;;;;10.15;8.43;;;5.60;99.90;;;;;;5014562;28;20186;-73
2022/01/12 12:42:05;;;;;;;8.88;7.90;;;5.80;99.90;;;;;;5016876;28;20696;-73
2022/01/12 12:44:33;;;;;;;13.38;8.15;;;6.70;99.90;;;;;;5015819;28;20288;-72
2022/01/12 12:47:16;;;;;;;9.18;7.97;;;7.00;99.90;;;;;;5019421;28;20559;-73
2022/01/12 12:49:47;;;;;;;10.77;8.80;;;7.10;98.80;;;;;;5020400;28;20779;-72
2022/01/12 12:52:29;;;;;;;11.25;9.10;;;6.50;96.60;;;;;;5023487;28;20671;-72
2022/01/12 12:55:00;;;;;;;9.95;8.68;;;5.90;99.10;;;;;;5030962;28;20185;-73
2022/01/12 12:57:28;;;;;;;9.98;8.43;;;5.80;99.50;;;;;;5027532;28;20179;-72
2022/01/12 13:00:16;;;;;;;10.30;9.15;;;5.00;99.90;;;;;;5029735;28;20201;-73
2022/01/12 13:02:45;;;;;;;9.93;8.48;;;5.00;99.90;;;;;;5028249;28;20216;-73
2022/01/12 13:05:14;;;;;;;15.27;9.55;;;5.00;99.90;;;;;;5030678;28;20264;-73
2022/01/12 13:07:42;;;;;;;10.90;9.10;;;4.30;99.90;;;;;;5019567;28;20177;-72
2022/01/12 13:10:13;;;;;;;11.50;8.85;;;4.20;99.90;;;;;;5030094;28;20172;-73
2022/01/12 13:12:40;;;;;;;12.52;9.30;;;4.20;99.90;;;;;;5020105;28;20220;-73
2022/01/12 13:15:10;;;;;;;11.75;8.65;;;4.20;99.90;;;;;;5025644;28;20609;-79
2022/01/12 13:17:39;;;;;;;11.18;9.07;;;4.20;99.90;;;;;;5017088;28;20181;-75
2022/01/12 13:22:46;;;;;;;11.10;9.35;;;3.80;99.90;;;;;;5018396;28;20692;-75
2022/01/12 13:25:15;;;;;;;10.00;8.82;;;4.30;99.90;;;;;;5023381;28;20538;-74
2022/01/12 13:27:42;;;;;;;12.02;9.50;;;4.60;99.90;;;;;;5017758;28;20208;-73
2022/01/12 13:30:20;;;;;;;10.35;8.88;;;5.20;99.90;;;;;;5019773;28;20208;-73
2022/01/12 13:32:55;;;;;;;11.65;9.63;;;5.20;99.90;;;;;;5021470;28;20319;-74
2022/01/12 13:35:35;;;;;;;12.25;9.52;;;4.80;99.90;;;;;;5025649;28;20186;-74
2022/01/12 13:38:04;;;;;;;11.18;8.98;;;4.60;99.90;;;;;;5024680;28;20208;-73
2022/01/12 13:40:38;;;;;;;10.23;8.85;;;5.20;99.90;;;;;;5019068;28;20185;-74
2022/01/12 13:43:05;;;;;;;10.32;8.55;;;5.70;99.90;;;;;;5021952;28;20242;-74
2022/01/12 13:45:42;;;;;;;9.88;8.85;;;5.90;99.00;;;;;;5023019;28;20705;-74
2022/01/12 13:48:16;;;;;;;11.30;9.07;;;5.30;99.70;;;;;;5017626;28;20187;-74
2022/01/12 13:50:52;;;;;;;10.07;7.88;;;5.00;99.90;;;;;;5026592;28;20592;-73
2022/01/12 13:53:19;;;;;;;11.18;9.07;;;5.10;98.60;;;;;;5021511;28;20213;-74
2022/01/12 13:55:53;;;;;;;12.50;9.10;;;4.90;99.10;;;;;;5017597;28;20188;-74